Montauk, New York
Current Conditions -  °F | °C
As of 11:56 PM on Friday 24 Oct 2014 (Local Time) from KGON Reporting Station
Broken Clouds Broken Clouds  
Wind Chill: 46°   Ceiling: 3200
Heat Index: 49°   Visibility: 10mi
Dew Point: 43°   Wind: 7mph
Humidity: 80%   Direction: 300°WNW
Pressure: 29.78"   Gusts: NA
Location:  41.04°N, 71.95°W
Report Text: KGON 250356Z AUTO 30006KT 10SM BKN032 09/06 A2978 RMK AO2 SLP085 T00940061
Loading
Personal Weather Stations






























Interactive Weather Map
Tropical Storm Tracking
New forecast layout! Learn more

10-Day Weather Forecast

Advertisements
Track Severe Weather on mobile